Etusivu
METAR-TAF:

METAR-TAF

Lentoasemat :

Bordj Badji Mokhtar, Algeria

Leveyspiiri: 21-22-30N, Pituuspiiri: 000-55-26E, korkeus merenpinnasta: 396 m

Tämänhetkinen sää

Tämä raportti tehtiin 1 tunti ja 38 minuuttia sitten, kello 10.00 UTC
Tuuli 9 kn koillisesta
Lämpötila 30°C
Ilmanpaine 1015 hPa
Näkyvyys 10 km tai enemmän
ei pilviä alle 1500 m:ssä eikä cumulonimbus-pilviä

METAR: DATM 011000Z 04009KT CAVOK 30/// Q1015

Aika: 12:38 (11:38 UTC)

Sääennuste

Tämä raportti tehtiin 3 tuntia ja 38 minuuttia sitten, kello 08.00 UTC
Ennuste voimassa 01. päivästä klo 09 UTC - 01. päivään klo 18 UTC
Tuuli 6 kn idästä
Näkyvyys 10 km tai enemmän
ei pilviä alle 1500 m:ssä eikä cumulonimbus-pilviä

TAF: DATM 010800Z 0109/0118 08006KT CAVOK

Säähavainnot ja -ennusteet yli 4000 lentoasemalta (METAR- ja TAF-raportit).

Käytössä olevat sääasemat on merkitty karttaan keltaisilla ja punaisilla pisteillä.

Aseta hiiri pisteen päälle nähdäksesi sääaseman nimen.

Klikkaa sitten nähdäksesi säähavainnot ja -ennusteet.

Kartan vaihtaminen: klikkaa mustalla rastilla varustettuja vihreitä pisteitä, niin voit zoomata sisään; viivalla varustettua vihreää pistettä, niin voit zoomata ulos tai vihreitä nuolia, niin pääset viereisille kartoille.


METAR-TAF: